Time;durP1;ratioP1;P1;durP2;ratioP2;P2;SDS_P1;SDS_P2;PMS_P1;PMS_P2;Temp;Humidity;BMP_temperature;BMP_pressure;BME280_temperature;BME280_humidity;BME280_pressure;Samples;Min_cycle;Max_cycle;Signal;HPM_P1;HPM_P2
2023/04/04 00:01:48;;;;;;;9.70;2.47;;;;;;;2.39;57.89;102908.00;5048003;28;20086;-45
2023/04/04 00:04:13;;;;;;;5.57;2.50;;;;;;;2.42;58.39;102905.44;5039761;28;20060;-44
2023/04/04 00:06:43;;;;;;;12.10;3.13;;;;;;;2.41;58.35;102902.84;5039748;28;20037;-44
2023/04/04 00:09:09;;;;;;;5.82;2.38;;;;;;;2.40;58.10;102901.94;5047095;28;20550;-44
2023/04/04 00:11:34;;;;;;;10.00;1.98;;;;;;;2.41;58.40;102901.09;5049248;28;20060;-44
2023/04/04 00:14:01;;;;;;;5.85;2.38;;;;;;;2.44;58.39;102888.16;5042896;28;20065;-44
2023/04/04 00:16:27;;;;;;;7.03;1.70;;;;;;;2.47;57.99;102894.22;5049307;28;20047;-44
2023/04/04 00:18:52;;;;;;;7.80;2.35;;;;;;;2.53;58.30;102892.56;5045446;28;20480;-46
2023/04/04 00:21:17;;;;;;;7.25;2.35;;;;;;;2.50;58.33;102891.63;5050736;28;20040;-45
2023/04/04 00:23:43;;;;;;;5.07;2.55;;;;;;;2.40;58.11;102885.50;5050308;28;20035;-45
2023/04/04 00:26:09;;;;;;;6.75;2.75;;;;;;;2.36;58.81;102881.13;5052748;28;20407;-46
2023/04/04 00:28:34;;;;;;;5.70;2.78;;;;;;;2.40;58.46;102880.31;5056080;28;20510;-44
2023/04/04 00:31:00;;;;;;;7.00;2.65;;;;;;;2.42;58.20;102884.66;5055775;28;20124;-45
2023/04/04 00:33:26;;;;;;;7.82;2.03;;;;;;;2.40;58.45;102881.16;5053738;28;20137;-45
2023/04/04 00:35:51;;;;;;;7.15;2.03;;;;;;;2.37;58.40;102883.72;5047560;28;20562;-45
2023/04/04 00:38:17;;;;;;;3.80;1.92;;;;;;;2.32;58.58;102881.94;5051386;28;20048;-47
2023/04/04 00:40:46;;;;;;;3.88;2.15;;;;;;;2.25;58.08;102874.09;5055444;28;20021;-45
2023/04/04 00:43:13;;;;;;;7.80;2.38;;;;;;;2.26;58.29;102874.94;5049024;28;20188;-45
2023/04/04 00:45:38;;;;;;;9.15;2.22;;;;;;;2.21;58.33;102880.09;5053304;28;20033;-47
2023/04/04 00:48:05;;;;;;;6.43;2.50;;;;;;;2.18;58.33;102874.00;5051297;28;20025;-45
2023/04/04 00:50:31;;;;;;;7.45;2.53;;;;;;;2.12;58.82;102875.66;5046543;28;20032;-44
2023/04/04 00:52:56;;;;;;;11.10;2.65;;;;;;;2.12;58.55;102874.75;5051146;28;20526;-45
2023/04/04 00:55:22;;;;;;;6.93;2.72;;;;;;;2.08;58.28;102878.22;5055593;28;20033;-45
2023/04/04 00:57:48;;;;;;;5.88;1.98;;;;;;;2.07;58.25;102869.53;5057271;28;20025;-46
2023/04/04 01:00:14;;;;;;;8.07;2.25;;;;;;;2.05;58.39;102867.78;5048635;28;20083;-46
2023/04/04 01:02:40;;;;;;;6.30;2.00;;;;;;;1.97;58.94;102865.09;5046514;28;20256;-46
2023/04/04 01:05:06;;;;;;;5.28;2.67;;;;;;;1.88;58.76;102860.66;5046354;28;20522;-45
2023/04/04 01:07:34;;;;;;;5.75;1.90;;;;;;;1.87;59.18;102863.22;5040883;28;20071;-47
2023/04/04 01:10:02;;;;;;;3.60;1.98;;;;;;;1.87;58.92;102873.63;5040756;28;20029;-45
2023/04/04 01:12:28;;;;;;;7.15;2.60;;;;;;;1.81;59.02;102870.06;5050830;28;20509;-45
2023/04/04 01:14:54;;;;;;;11.27;2.75;;;;;;;1.80;59.49;102867.47;5048859;28;20037;-44
2023/04/04 01:17:20;;;;;;;7.20;1.77;;;;;;;1.78;59.15;102870.03;5044601;28;20043;-45
2023/04/04 01:19:55;;;;;;;8.73;2.15;;;;;;;1.78;59.18;102867.44;5041085;28;20134;-44
2023/04/04 01:22:22;;;;;;;4.82;1.77;;;;;;;1.81;59.35;102870.06;5047011;28;20121;-46
2023/04/04 01:24:48;;;;;;;6.63;2.75;;;;;;;1.81;59.24;102864.88;5054359;28;20399;-45
2023/04/04 01:27:15;;;;;;;6.03;2.20;;;;;;;1.82;59.35;102864.03;5052331;28;20444;-44
2023/04/04 01:29:40;;;;;;;5.35;2.13;;;;;;;1.84;58.99;102851.06;5061049;28;20090;-45
2023/04/04 01:32:34;;;;;;;7.72;1.88;;;;;;;1.82;59.32;102848.47;5050024;28;20025;-45
2023/04/04 01:35:29;;;;;;;6.00;1.63;;;;;;;1.86;58.99;102851.09;5039026;28;20078;-45
2023/04/04 01:38:03;;;;;;;4.72;1.95;;;;;;;1.78;58.90;102849.25;5044429;28;20032;-45
2023/04/04 01:40:36;;;;;;;10.32;3.00;;;;;;;1.76;59.35;102853.56;5046360;28;20025;-45
2023/04/04 01:43:02;;;;;;;5.50;2.13;;;;;;;1.75;59.15;102849.22;5046360;28;20047;-45
2023/04/04 01:45:28;;;;;;;8.07;2.45;;;;;;;1.72;59.06;102846.59;5043735;28;20718;-46
2023/04/04 01:47:55;;;;;;;6.05;1.95;;;;;;;1.76;59.22;102853.56;5050201;28;20025;-45
2023/04/04 01:50:21;;;;;;;8.85;1.95;;;;;;;1.79;59.02;102845.81;5039499;28;20060;-46
2023/04/04 01:52:47;;;;;;;9.70;3.05;;;;;;;1.77;59.02;102844.91;5053392;28;20072;-45
2023/04/04 01:55:13;;;;;;;8.77;2.03;;;;;;;1.79;59.38;102840.63;5053246;28;20101;-44
2023/04/04 01:57:38;;;;;;;7.47;2.78;;;;;;;1.79;58.82;102845.81;5052170;28;20036;-44
2023/04/04 02:00:04;;;;;;;10.27;2.15;;;;;;;1.75;58.79;102851.81;5044543;28;20558;-44
2023/04/04 02:02:30;;;;;;;6.22;1.95;;;;;;;1.68;59.23;102845.66;5047397;28;20162;-44
2023/04/04 02:04:55;;;;;;;7.03;2.28;;;;;;;1.67;59.54;102843.06;5033181;28;20055;-44
2023/04/04 02:07:22;;;;;;;6.63;2.05;;;;;;;1.68;59.24;102842.22;5049978;28;20033;-44
2023/04/04 02:09:47;;;;;;;4.45;2.15;;;;;;;1.66;59.35;102839.59;5045036;28;20041;-44
2023/04/04 02:12:12;;;;;;;7.78;1.88;;;;;;;1.61;59.39;102842.97;5039508;28;20025;-44
2023/04/04 02:14:38;;;;;;;7.95;2.72;;;;;;;1.56;59.47;102840.31;5042455;28;20123;-44
2023/04/04 02:17:04;;;;;;;3.63;1.67;;;;;;;1.52;59.15;102836.81;5037004;28;20059;-44
2023/04/04 02:19:29;;;;;;;3.85;1.92;;;;;;;1.49;59.11;102835.91;5045418;28;20045;-44
2023/04/04 02:21:55;;;;;;;3.75;1.15;;;;;;;1.50;59.12;102838.50;5053241;28;20041;-44
2023/04/04 02:24:21;;;;;;;12.30;2.45;;;;;;;1.46;58.80;102839.31;5049685;28;20463;-44
2023/04/04 02:26:47;;;;;;;7.82;2.80;;;;;;;1.42;59.39;102834.97;5040708;28;20100;-44
2023/04/04 02:29:12;;;;;;;6.03;2.05;;;;;;;1.36;59.15;102832.25;5039941;28;20499;-44
2023/04/04 02:31:38;;;;;;;7.63;1.75;;;;;;;1.31;59.43;102831.31;5044212;28;20039;-46
2023/04/04 02:34:03;;;;;;;6.43;2.03;;;;;;;1.29;59.66;102833.91;5037111;28;20096;-44
2023/04/04 02:36:28;;;;;;;5.47;1.83;;;;;;;1.24;59.63;102830.34;5045257;28;20390;-44
2023/04/04 02:38:54;;;;;;;6.45;2.38;;;;;;;1.19;59.76;102835.47;5045103;28;20059;-44
2023/04/04 02:41:19;;;;;;;3.60;1.67;;;;;;;1.20;59.41;102833.78;5044975;28;20462;-44
2023/04/04 02:43:45;;;;;;;6.72;1.77;;;;;;;1.19;59.56;102832.03;5045100;28;20044;-44
2023/04/04 02:46:10;;;;;;;5.82;1.48;;;;;;;1.18;59.47;102825.94;5047927;28;20061;-44
2023/04/04 02:48:36;;;;;;;7.50;3.60;;;;;;;1.17;58.96;102829.38;5049510;28;20066;-44
2023/04/04 02:51:01;;;;;;;6.32;2.17;;;;;;;1.13;59.71;102825.03;5033755;28;20054;-44
2023/04/04 02:53:27;;;;;;;8.88;2.28;;;;;;;1.12;59.72;102814.63;5045549;28;20050;-44
2023/04/04 02:55:53;;;;;;;5.28;1.35;;;;;;;1.11;59.71;102815.47;5052928;28;20060;-44
2023/04/04 02:58:19;;;;;;;5.93;2.13;;;;;;;1.09;59.53;102815.44;5040923;28;20036;-45
2023/04/04 03:00:46;;;;;;;6.28;2.30;;;;;;;1.05;60.04;102813.66;5044917;28;20684;-45
2023/04/04 03:03:11;;;;;;;8.65;1.70;;;;;;;1.06;60.04;102820.59;5046911;28;20526;-45
2023/04/04 03:05:37;;;;;;;5.43;2.58;;;;;;;1.04;59.94;102811.91;5053278;28;20044;-46
2023/04/04 03:08:03;;;;;;;7.30;1.98;;;;;;;1.01;60.15;102806.66;5051428;28;20514;-45
2023/04/04 03:10:29;;;;;;;10.20;2.30;;;;;;;1.02;60.00;102808.41;5051428;28;20059;-45
2023/04/04 03:12:55;;;;;;;9.48;2.40;;;;;;;1.05;60.20;102803.28;5049101;28;20159;-45
2023/04/04 03:15:21;;;;;;;2.22;1.02;;;;;;;1.05;59.98;102796.38;5041972;28;21241;-48
2023/04/04 03:17:47;;;;;;;5.25;2.10;;;;;;;1.00;60.09;102797.13;5022697;28;20494;-45
2023/04/04 03:20:13;;;;;;;3.55;1.58;;;;;;;1.00;60.19;102805.81;5043145;28;20103;-45
2023/04/04 03:22:40;;;;;;;3.88;1.70;;;;;;;0.98;60.33;102796.28;5053459;28;20028;-44
2023/04/04 03:25:05;;;;;;;6.10;2.22;;;;;;;1.01;59.83;102796.28;5042411;28;20035;-45
2023/04/04 03:27:33;;;;;;;5.53;2.03;;;;;;;1.05;60.25;102792.91;5061601;28;20740;-45
2023/04/04 03:29:59;;;;;;;6.85;3.65;;;;;;;1.08;60.20;102786.88;5043929;28;20033;-44
2023/04/04 03:32:25;;;;;;;17.00;7.80;;;;;;;1.08;59.83;102790.38;5045415;28;20499;-44
2023/04/04 03:34:53;;;;;;;5.05;2.25;;;;;;;1.10;60.43;102780.91;5051044;28;20490;-45
2023/04/04 03:37:18;;;;;;;4.68;2.20;;;;;;;1.08;59.64;102787.78;5048451;28;20036;-45
2023/04/04 03:39:44;;;;;;;7.00;2.38;;;;;;;1.00;60.35;102789.34;5043046;28;20398;-45
2023/04/04 03:42:10;;;;;;;5.97;2.28;;;;;;;0.97;60.21;102778.97;5046186;28;20167;-45
2023/04/04 03:44:39;;;;;;;6.45;1.88;;;;;;;0.98;60.34;102778.97;5049021;28;20036;-44
2023/04/04 03:47:04;;;;;;;7.43;2.40;;;;;;;0.95;59.88;102775.47;5051070;28;20044;-46
2023/04/04 03:49:31;;;;;;;9.38;2.40;;;;;;;0.93;60.74;102772.00;5036786;28;20040;-44
2023/04/04 03:51:57;;;;;;;9.07;2.35;;;;;;;0.91;60.51;102761.56;5049497;28;20036;-45
2023/04/04 03:54:22;;;;;;;7.32;2.45;;;;;;;0.93;60.26;102761.63;5052655;28;20525;-44
2023/04/04 03:56:48;;;;;;;6.43;2.45;;;;;;;0.93;60.85;102759.88;5049259;28;20051;-47
2023/04/04 03:59:13;;;;;;;7.13;1.70;;;;;;;0.91;60.31;102757.28;5043640;28;20044;-44
2023/04/04 04:01:39;;;;;;;9.45;3.17;;;;;;;0.91;60.75;102758.97;5053911;28;20498;-46
2023/04/04 04:04:05;;;;;;;14.30;5.88;;;;;;;0.90;60.16;102752.94;5050576;28;20027;-44
2023/04/04 04:06:30;;;;;;;5.97;3.03;;;;;;;0.88;60.47;102759.81;5043110;28;20095;-44
2023/04/04 04:08:57;;;;;;;8.98;2.65;;;;;;;0.88;60.66;102758.97;5046731;28;20466;-45
2023/04/04 04:11:22;;;;;;;4.40;1.50;;;;;;;0.86;60.75;102755.47;5049148;28;20096;-45
2023/04/04 04:13:48;;;;;;;8.52;1.85;;;;;;;0.85;60.72;102752.00;5052849;28;20429;-45
2023/04/04 04:16:13;;;;;;;10.43;2.38;;;;;;;0.87;60.42;102752.03;5055321;28;20426;-44
2023/04/04 04:18:39;;;;;;;5.38;2.33;;;;;;;0.85;60.50;102759.75;5041512;28;20519;-44
2023/04/04 04:21:04;;;;;;;4.95;2.03;;;;;;;0.88;60.93;102761.56;5050633;28;20029;-45
2023/04/04 04:23:30;;;;;;;9.48;3.42;;;;;;;0.90;60.80;102760.72;5046959;28;20091;-46
2023/04/04 04:25:55;;;;;;;5.18;2.30;;;;;;;0.87;60.93;102747.72;5056946;28;20054;-45
2023/04/04 04:28:25;;;;;;;6.05;1.98;;;;;;;0.87;60.37;102746.84;5051131;28;20096;-44
2023/04/04 04:30:50;;;;;;;9.23;2.83;;;;;;;0.85;60.87;102749.41;5054651;28;20059;-45
2023/04/04 04:33:16;;;;;;;7.47;2.20;;;;;;;0.86;60.83;102748.56;5050974;28;20041;-45
2023/04/04 04:35:41;;;;;;;4.32;1.75;;;;;;;0.84;60.92;102751.97;5041945;28;20075;-49
2023/04/04 04:38:07;;;;;;;3.97;1.80;;;;;;;0.84;60.83;102752.84;5044860;28;20052;-46
2023/04/04 04:40:33;;;;;;;6.75;2.38;;;;;;;0.85;60.79;102745.94;5037350;28;20733;-44
2023/04/04 04:42:58;;;;;;;8.52;2.78;;;;;;;0.79;60.61;102743.25;5047024;28;20032;-45
2023/04/04 04:45:24;;;;;;;7.05;2.40;;;;;;;0.68;60.17;102750.88;5039585;28;20047;-44
2023/04/04 04:47:50;;;;;;;9.75;2.78;;;;;;;0.62;60.42;102745.59;5051564;28;20684;-43
2023/04/04 04:50:16;;;;;;;4.45;1.38;;;;;;;0.59;61.12;102755.06;5031980;28;20055;-44
2023/04/04 04:52:42;;;;;;;3.20;1.70;;;;;;;0.53;60.71;102744.56;5051171;28;20517;-44
2023/04/04 04:55:08;;;;;;;5.18;2.28;;;;;;;0.55;61.27;102742.88;5051579;28;20044;-44
2023/04/04 04:57:34;;;;;;;11.00;3.78;;;;;;;0.59;61.26;102739.50;5045492;28;20043;-44
2023/04/04 05:00:00;;;;;;;7.13;1.65;;;;;;;0.67;61.04;102739.63;5045169;28;20061;-44
2023/04/04 05:02:26;;;;;;;24.35;5.57;;;;;;;0.66;61.04;102742.22;5042407;28;20037;-44
2023/04/04 05:04:52;;;;;;;4.60;1.17;;;;;;;0.67;60.66;102734.44;5048849;28;20052;-44
2023/04/04 05:07:17;;;;;;;7.43;2.30;;;;;;;0.79;61.04;102745.84;5046630;28;20053;-44
2023/04/04 05:09:42;;;;;;;2.30;1.35;;;;;;;0.78;60.84;102746.69;5045479;28;20079;-44
2023/04/04 05:12:08;;;;;;;6.95;1.88;;;;;;;0.74;60.93;102750.97;5050781;28;20059;-44
2023/04/04 05:14:33;;;;;;;5.82;1.70;;;;;;;0.72;60.55;102752.66;5051598;28;20049;-44
2023/04/04 05:16:59;;;;;;;6.72;2.08;;;;;;;0.72;61.33;102755.25;5043099;28;20048;-44
2023/04/04 05:19:24;;;;;;;5.80;1.92;;;;;;;0.78;60.94;102747.56;5046093;28;20090;-44
2023/04/04 05:21:50;;;;;;;4.55;1.27;;;;;;;0.86;60.88;102750.28;5045752;28;20555;-44
2023/04/04 05:24:16;;;;;;;3.50;2.08;;;;;;;0.88;61.16;102749.44;5039514;28;20552;-44
2023/04/04 05:26:41;;;;;;;8.68;1.65;;;;;;;1.00;60.99;102743.59;5043036;28;20063;-44
2023/04/04 05:29:07;;;;;;;7.88;1.92;;;;;;;1.07;60.56;102749.72;5031862;28;20059;-44
2023/04/04 05:31:32;;;;;;;11.85;2.33;;;;;;;1.10;60.65;102749.78;5056978;28;20051;-44
2023/04/04 05:33:59;;;;;;;5.85;1.40;;;;;;;1.17;60.49;102756.78;5049086;28;20036;-44
2023/04/04 05:36:24;;;;;;;14.77;5.22;;;;;;;1.19;60.42;102762.00;5062110;28;20045;-44
2023/04/04 05:38:50;;;;;;;9.40;2.38;;;;;;;1.24;60.44;102751.69;5038176;28;20037;-44
2023/04/04 05:41:15;;;;;;;8.10;1.67;;;;;;;1.24;60.60;102755.13;5043049;28;20035;-44
2023/04/04 05:43:40;;;;;;;11.18;1.90;;;;;;;1.27;60.07;102756.91;5057456;28;20521;-44
2023/04/04 05:46:06;;;;;;;3.53;1.17;;;;;;;1.36;60.36;102754.44;5042370;28;20044;-44
2023/04/04 05:48:31;;;;;;;4.50;1.25;;;;;;;1.40;59.98;102757.94;5045736;28;20118;-46
2023/04/04 05:50:57;;;;;;;5.15;1.42;;;;;;;1.41;60.06;102749.31;5050164;28;20181;-45
2023/04/04 05:53:22;;;;;;;4.57;1.60;;;;;;;1.41;60.06;102757.97;5049077;28;20402;-44
2023/04/04 05:55:53;;;;;;;3.50;1.40;;;;;;;1.56;60.13;102756.44;5051674;28;20051;-47
2023/04/04 05:58:19;;;;;;;5.45;1.60;;;;;;;1.60;60.02;102763.38;5050335;28;20060;-45
2023/04/04 06:00:44;;;;;;;4.70;1.30;;;;;;;1.67;60.07;102758.28;5037967;28;20401;-45
2023/04/04 06:03:10;;;;;;;3.80;1.55;;;;;;;1.70;59.98;102765.25;5048816;28;20025;-47
2023/04/04 06:05:35;;;;;;;5.55;1.40;;;;;;;1.76;60.05;102762.69;5040719;28;20071;-45
2023/04/04 06:08:01;;;;;;;5.57;2.10;;;;;;;1.82;60.25;102767.97;5034236;28;20037;-47
2023/04/04 06:10:26;;;;;;;10.02;2.33;;;;;;;1.88;59.83;102767.19;5034066;28;20071;-47
2023/04/04 06:12:52;;;;;;;5.97;1.65;;;;;;;1.92;59.52;102762.88;5045003;28;20112;-48
2023/04/04 06:15:17;;;;;;;7.88;2.45;;;;;;;2.00;59.85;102768.16;5041344;28;20040;-46
2023/04/04 06:17:43;;;;;;;8.85;2.08;;;;;;;2.01;59.83;102763.00;5034027;28;20406;-48
2023/04/04 06:20:09;;;;;;;4.82;1.98;;;;;;;2.06;60.10;102761.31;5041159;28;20396;-48
2023/04/04 06:22:35;;;;;;;4.32;1.48;;;;;;;2.12;59.97;102766.56;5040603;28;20091;-46
2023/04/04 06:25:00;;;;;;;4.55;1.48;;;;;;;2.18;60.09;102768.34;5030314;28;20033;-46
2023/04/04 06:27:26;;;;;;;5.75;1.80;;;;;;;2.21;59.93;102767.50;5042706;28;20522;-45
2023/04/04 06:29:51;;;;;;;8.80;2.20;;;;;;;2.27;60.14;102765.84;5039080;28;20044;-46
2023/04/04 06:32:16;;;;;;;4.07;1.20;;;;;;;2.32;59.97;102767.63;5042075;28;20039;-45
2023/04/04 06:34:46;;;;;;;9.90;2.03;;;;;;;2.39;60.10;102770.28;5014067;28;20449;-45
2023/04/04 06:37:12;;;;;;;6.10;1.40;;;;;;;2.46;59.80;102770.34;5054640;28;20506;-45
2023/04/04 06:39:37;;;;;;;6.43;2.28;;;;;;;2.51;59.80;102771.25;5045359;28;20017;-45
2023/04/04 06:42:02;;;;;;;7.38;1.40;;;;;;;2.57;59.86;102768.72;5054045;28;20042;-46
2023/04/04 06:44:28;;;;;;;5.30;1.83;;;;;;;2.59;59.94;102767.84;5049400;28;20116;-46
2023/04/04 06:46:53;;;;;;;7.13;1.30;;;;;;;2.63;59.61;102771.38;5051815;28;20060;-45
2023/04/04 06:49:19;;;;;;;2.58;1.20;;;;;;;2.68;59.78;102772.25;5053925;28;20036;-44
2023/04/04 06:51:45;;;;;;;2.00;1.30;;;;;;;2.77;59.62;102770.59;5049089;28;20033;-45
2023/04/04 06:54:10;;;;;;;4.38;1.60;;;;;;;2.80;59.34;102773.22;5047829;28;20031;-45
2023/04/04 06:56:36;;;;;;;5.85;1.05;;;;;;;2.80;59.47;102766.28;5051412;28;20046;-45
2023/04/04 06:59:02;;;;;;;2.10;1.20;;;;;;;2.81;59.47;102761.94;5050062;28;20055;-45
2023/04/04 07:01:27;;;;;;;4.68;1.48;;;;;;;2.81;59.39;102762.84;5051534;28;20029;-45
2023/04/04 07:03:53;;;;;;;2.97;1.27;;;;;;;2.88;59.56;102754.19;5050916;28;20029;-46
2023/04/04 07:06:21;;;;;;;5.10;1.48;;;;;;;2.96;59.11;102756.84;5051504;28;20066;-48
2023/04/04 07:08:46;;;;;;;3.58;1.45;;;;;;;3.04;59.27;102755.19;5051771;28;20032;-45
2023/04/04 07:11:12;;;;;;;8.95;2.25;;;;;;;3.10;59.16;102754.34;5045433;28;20078;-45
2023/04/04 07:13:37;;;;;;;4.18;2.13;;;;;;;3.17;59.21;102755.25;5042552;28;20510;-45
2023/04/04 07:16:03;;;;;;;7.43;1.58;;;;;;;3.24;58.96;102751.84;5044316;28;20033;-46
2023/04/04 07:18:29;;;;;;;7.63;2.17;;;;;;;3.35;58.86;102747.56;5055588;28;20043;-46
2023/04/04 07:20:54;;;;;;;5.78;1.60;;;;;;;3.43;58.83;102741.50;5050571;28;20059;-45
2023/04/04 07:23:20;;;;;;;4.97;1.40;;;;;;;3.49;58.63;102751.94;5049684;28;20025;-45
2023/04/04 07:25:46;;;;;;;2.25;1.08;;;;;;;3.54;58.22;102750.25;5059229;28;20044;-45
2023/04/04 07:28:11;;;;;;;5.22;1.15;;;;;;;3.57;58.75;102750.22;5046576;28;20025;-45
2023/04/04 07:30:36;;;;;;;7.28;1.55;;;;;;;3.64;58.53;102753.72;5051510;28;20040;-45
2023/04/04 07:33:03;;;;;;;3.72;1.20;;;;;;;3.71;58.49;102744.19;5047278;28;20024;-45
2023/04/04 07:35:28;;;;;;;2.80;1.33;;;;;;;3.76;58.33;102742.47;5048383;28;20490;-45
2023/04/04 07:37:54;;;;;;;3.80;1.17;;;;;;;3.77;58.31;102746.84;5052972;28;20123;-46
2023/04/04 07:40:20;;;;;;;2.15;0.88;;;;;;;3.79;58.12;102745.09;5050284;28;20479;-45
2023/04/04 07:42:49;;;;;;;1.67;0.95;;;;;;;3.86;57.98;102744.25;5050643;28;20420;-45
2023/04/04 07:45:15;;;;;;;5.82;1.63;;;;;;;3.88;58.02;102739.06;5051013;28;20025;-45
2023/04/04 07:47:44;;;;;;;4.00;1.40;;;;;;;3.85;58.13;102739.03;5050566;28;20099;-45
2023/04/04 07:50:11;;;;;;;3.50;1.67;;;;;;;3.91;57.55;102739.91;5047495;28;20611;-45
2023/04/04 07:52:36;;;;;;;4.60;1.13;;;;;;;3.96;58.05;102735.59;5046764;28;20401;-47
2023/04/04 07:55:02;;;;;;;7.43;1.63;;;;;;;3.94;58.25;102737.31;5049687;28;20741;-45
2023/04/04 07:57:28;;;;;;;7.65;1.30;;;;;;;3.89;58.22;102741.66;5049179;28;20032;-45
2023/04/04 08:53:11;;;;;;;5.65;1.00;;;;;;;5.31;52.72;102704.16;5500892;23;20096;-48
2023/04/04 08:55:37;;;;;;;3.50;0.97;;;;;;;5.33;53.78;102706.78;4846639;28;2455632;-47
2023/04/04 08:58:03;;;;;;;1.38;0.90;;;;;;;5.28;53.58;102704.19;4943145;28;20076;-47
2023/04/04 09:00:29;;;;;;;3.85;2.10;;;;;;;5.29;53.15;102699.81;4946206;28;20046;-48
2023/04/04 09:02:57;;;;;;;3.97;1.05;;;;;;;5.30;53.25;102698.94;4942298;28;20078;-48
2023/04/04 09:05:24;;;;;;;3.78;0.93;;;;;;;5.31;53.25;102698.94;4947349;28;20058;-48
2023/04/04 09:07:51;;;;;;;6.07;1.13;;;;;;;5.39;52.94;102690.22;4948198;28;20056;-47
2023/04/04 09:10:16;;;;;;;5.28;1.02;;;;;;;5.53;52.47;102698.84;4948909;28;20074;-48
2023/04/04 09:12:46;;;;;;;2.53;1.40;;;;;;;5.58;51.79;102691.88;4946613;28;20085;-48
2023/04/04 09:15:12;;;;;;;1.95;0.90;;;;;;;5.64;51.45;102696.19;4945858;28;20141;-48
2023/04/04 09:17:38;;;;;;;1.58;1.05;;;;;;;5.64;51.50;102696.19;4945814;28;20052;-48
2023/04/04 09:20:34;;;;;;;5.05;0.95;;;;;;;5.62;50.57;102695.31;4947565;28;20413;-48
2023/04/04 09:23:00;;;;;;;3.72;1.17;;;;;;;5.65;51.90;102692.69;4943580;28;20229;-48
2023/04/04 09:25:25;;;;;;;4.85;0.77;;;;;;;5.74;51.39;102691.78;4946358;28;20546;-48
2023/04/04 09:27:52;;;;;;;4.22;1.52;;;;;;;5.85;51.22;102696.91;4948537;28;20043;-48
2023/04/04 09:30:17;;;;;;;3.03;0.82;;;;;;;5.95;50.71;102690.75;4948826;28;20045;-48
2023/04/04 09:32:43;;;;;;;0.80;0.60;;;;;;;6.04;50.52;102698.56;4948067;28;20065;-49
2023/04/04 09:35:11;;;;;;;1.67;0.77;;;;;;;6.04;50.45;102690.72;4941233;28;20424;-48
2023/04/04 09:37:39;;;;;;;3.40;1.05;;;;;;;6.04;49.91;102689.88;4937427;29;20062;-48
2023/04/04 09:40:08;;;;;;;3.08;0.70;;;;;;;6.00;49.98;102686.38;4934191;29;20047;-47
2023/04/04 09:42:34;;;;;;;3.35;0.93;;;;;;;6.02;50.26;102692.47;4932576;29;20550;-47
2023/04/04 09:45:01;;;;;;;3.15;0.93;;;;;;;6.02;49.84;102682.03;4936072;29;20423;-48
2023/04/04 09:47:29;;;;;;;2.08;0.90;;;;;;;5.99;49.95;102692.44;4934936;29;20052;-49
2023/04/04 09:49:59;;;;;;;2.22;0.98;;;;;;;5.99;49.23;102687.22;4936046;29;20077;-48
2023/04/04 09:52:24;;;;;;;2.83;1.38;;;;;;;5.90;49.39;102698.59;4934079;29;20076;-48
2023/04/04 09:55:00;;;;;;;0.77;0.60;;;;;;;5.86;48.46;102685.59;4925869;29;20055;-48
2023/04/04 09:57:33;;;;;;;4.93;1.17;;;;;;;5.89;49.00;102682.94;4927208;29;20396;-50
2023/04/04 10:00:00;;;;;;;3.53;0.77;;;;;;;5.85;49.03;102674.28;4932119;28;20044;-48
2023/04/04 10:02:29;;;;;;;1.73;1.20;;;;;;;5.92;48.67;102664.66;4928823;29;20070;-49
2023/04/04 10:04:56;;;;;;;4.20;0.90;;;;;;;6.01;48.50;102664.59;4930448;29;20063;-49
2023/04/04 10:07:23;;;;;;;0.63;0.35;;;;;;;6.06;48.57;102667.16;4929880;29;20086;-48
2023/04/04 10:09:51;;;;;;;5.07;1.10;;;;;;;6.03;47.47;102662.84;4947360;28;20052;-48
2023/04/04 10:12:21;;;;;;;1.75;0.98;;;;;;;6.15;47.31;102661.00;4924354;29;20099;-49
2023/04/04 10:14:46;;;;;;;2.97;0.88;;;;;;;6.21;47.17;102651.38;4926026;29;20126;-47
2023/04/04 10:17:15;;;;;;;2.42;0.93;;;;;;;6.39;46.87;102655.56;4925700;29;20406;-48
2023/04/04 10:19:41;;;;;;;2.15;0.90;;;;;;;6.46;46.63;102651.16;4929669;29;20051;-49
2023/04/04 10:22:08;;;;;;;2.60;0.55;;;;;;;6.50;46.61;102662.44;4925387;29;20052;-49
2023/04/04 10:24:34;;;;;;;13.70;3.08;;;;;;;6.47;46.45;102647.66;4927219;28;20126;-48
2023/04/04 10:27:00;;;;;;;3.10;0.75;;;;;;;6.59;46.63;102644.03;4933440;29;20457;-48
2023/04/04 10:29:26;;;;;;;5.43;1.52;;;;;;;6.65;46.33;102643.13;4929908;29;20047;-48
2023/04/04 10:32:04;;;;;;;4.68;2.03;;;;;;;6.64;45.75;102646.63;4929670;29;20048;-47
2023/04/04 10:34:42;;;;;;;4.15;1.23;;;;;;;6.74;46.06;102644.75;4928277;29;20072;-53
2023/04/04 10:37:12;;;;;;;3.67;1.23;;;;;;;6.78;45.93;102626.41;4928585;29;20578;-48
2023/04/04 10:39:50;;;;;;;5.07;1.27;;;;;;;6.83;45.40;102644.66;4929012;29;20131;-48
2023/04/04 10:42:18;;;;;;;4.90;0.85;;;;;;;6.81;45.90;102634.19;4926190;29;20154;-49
2023/04/04 10:44:44;;;;;;;4.30;1.17;;;;;;;6.90;46.38;102629.75;4923190;29;20437;-49
2023/04/04 10:47:16;;;;;;;4.53;1.50;;;;;;;6.95;46.36;102625.34;4928507;29;20165;-50
2023/04/04 10:49:46;;;;;;;5.00;1.17;;;;;;;6.97;45.95;102629.66;4927002;29;20068;-49
2023/04/04 10:52:14;;;;;;;3.00;1.60;;;;;;;7.00;46.91;102618.28;4928610;29;20082;-48
2023/04/04 10:54:42;;;;;;;5.15;1.48;;;;;;;7.04;46.32;102629.56;4926246;29;20075;-48
2023/04/04 10:57:09;;;;;;;2.15;0.68;;;;;;;6.98;45.86;102623.53;4924572;29;20053;-48
2023/04/04 10:59:55;;;;;;;2.60;0.70;;;;;;;7.00;44.70;102613.03;4928695;29;20048;-50
2023/04/04 11:02:52;;;;;;;3.28;1.20;;;;;;;7.06;44.73;102614.72;4928960;29;20066;-48
2023/04/04 11:05:33;;;;;;;3.25;1.20;;;;;;;7.17;45.10;102612.84;4930425;29;20050;-49
2023/04/04 11:08:03;;;;;;;2.55;1.05;;;;;;;7.29;45.28;102617.91;4929677;29;20082;-49
2023/04/04 11:10:37;;;;;;;7.40;1.80;;;;;;;7.29;44.83;102611.78;4927550;29;20036;-50
2023/04/04 11:13:11;;;;;;;6.25;1.30;;;;;;;7.24;44.71;102614.47;4920616;29;20190;-48
2023/04/04 11:16:03;;;;;;;2.70;1.17;;;;;;;7.16;43.78;102613.72;4928137;29;20063;-49
2023/04/04 11:18:38;;;;;;;;;;;;;;;7.21;43.33;102603.19;4924690;29;20054;-49
2023/04/04 11:21:19;;;;;;;2.10;0.80;;;;;;;7.32;43.92;102596.91;4923994;29;20607;-49
2023/04/04 11:23:50;;;;;;;3.58;0.95;;;;;;;7.42;44.13;102596.78;4927045;29;20071;-49
2023/04/04 11:26:34;;;;;;;2.50;1.23;;;;;;;7.45;43.76;102601.97;4929921;29;20046;-49
2023/04/04 11:29:06;;;;;;;2.22;0.88;;;;;;;7.51;44.59;102591.38;4937291;29;20052;-49
2023/04/04 11:31:32;;;;;;;2.65;0.90;;;;;;;7.52;44.49;102593.13;4932464;29;20054;-48
2023/04/04 11:34:05;;;;;;;5.40;1.40;;;;;;;7.45;43.87;102581.03;4936799;29;20057;-49
2023/04/04 11:36:34;;;;;;;2.28;0.88;;;;;;;7.40;43.96;102582.84;4937650;29;20046;-49
2023/04/04 11:39:10;;;;;;;2.33;1.20;;;;;;;7.41;44.28;102576.72;4934646;29;20034;-49
2023/04/04 11:41:54;;;;;;;1.92;1.02;;;;;;;7.51;43.30;102577.44;4935474;29;20202;-49
2023/04/04 11:44:24;;;;;;;1.77;0.85;;;;;;;7.65;44.17;102569.34;4931535;29;20104;-48
2023/04/04 11:47:01;;;;;;;3.92;1.23;;;;;;;7.76;43.37;102567.44;4933252;29;20525;-49
2023/04/04 11:49:31;;;;;;;4.63;1.35;;;;;;;7.77;43.88;102558.69;4936025;29;20057;-49
2023/04/04 11:51:57;;;;;;;1.65;1.02;;;;;;;7.75;43.90;102563.09;4931514;29;20049;-48
2023/04/04 11:54:23;;;;;;;2.70;1.45;;;;;;;7.66;43.08;102569.34;4933969;29;20034;-49
2023/04/04 11:56:49;;;;;;;2.58;0.95;;;;;;;7.56;42.92;102558.13;4932877;29;20051;-49
2023/04/04 11:59:20;;;;;;;3.92;1.00;;;;;;;7.55;42.85;102556.41;4933795;29;20074;-49
2023/04/04 12:01:47;;;;;;;7.28;1.38;;;;;;;7.56;43.36;102550.28;4928191;29;20031;-49
2023/04/04 12:04:17;;;;;;;2.25;0.90;;;;;;;7.62;43.12;102550.19;4932637;29;20433;-49
2023/04/04 12:06:43;;;;;;;1.63;0.88;;;;;;;7.70;42.90;102544.81;4932526;29;20074;-49
2023/04/04 12:09:11;;;;;;;4.60;1.02;;;;;;;7.78;42.79;102544.69;4933347;29;20052;-49
2023/04/04 12:11:37;;;;;;;2.42;0.95;;;;;;;7.88;42.92;102542.75;4933035;29;20046;-50
2023/04/04 12:14:02;;;;;;;4.93;1.23;;;;;;;7.97;42.70;102534.75;4933567;29;20042;-50
2023/04/04 12:16:29;;;;;;;2.35;1.20;;;;;;;8.07;42.21;102525.81;4937777;29;20058;-49
2023/04/04 12:19:00;;;;;;;1.63;0.77;;;;;;;8.11;41.71;102539.72;4928538;29;20054;-49
2023/04/04 12:21:26;;;;;;;2.00;1.10;;;;;;;8.03;42.06;102526.75;4933550;29;20084;-49
2023/04/04 12:23:54;;;;;;;2.92;1.00;;;;;;;8.02;41.92;102534.66;4930603;29;20068;-49
2023/04/04 12:26:20;;;;;;;4.88;1.42;;;;;;;7.96;42.11;102529.50;4932239;29;20441;-49
2023/04/04 12:28:46;;;;;;;3.17;1.10;;;;;;;7.99;42.35;102525.09;4932670;29;20546;-49